createdAt,value
2023-08-29T00:01:55.652Z,15.02
2023-08-29T00:04:24.536Z,14.10
2023-08-29T00:06:52.056Z,12.43
2023-08-29T00:09:19.573Z,15.80
2023-08-29T00:11:47.051Z,16.60
2023-08-29T00:14:14.534Z,17.65
2023-08-29T00:16:42.120Z,18.80
2023-08-29T00:19:09.610Z,18.17
2023-08-29T00:21:38.473Z,17.05
2023-08-29T00:24:07.498Z,16.23
2023-08-29T00:26:35.002Z,16.52
2023-08-29T00:29:02.616Z,13.50
2023-08-29T00:31:30.156Z,9.95
2023-08-29T00:33:57.658Z,11.75
2023-08-29T00:36:25.184Z,9.68
2023-08-29T00:38:54.193Z,9.75
2023-08-29T00:41:21.719Z,10.00
2023-08-29T00:43:49.225Z,9.57
2023-08-29T00:46:17.040Z,10.60
2023-08-29T00:48:44.900Z,11.65
2023-08-29T00:51:12.665Z,14.65
2023-08-29T00:53:40.252Z,16.63
2023-08-29T00:56:09.148Z,15.85
2023-08-29T00:58:37.094Z,16.45
2023-08-29T01:01:04.764Z,17.60
2023-08-29T01:03:32.716Z,16.92
2023-08-29T01:06:00.201Z,11.63
2023-08-29T01:08:27.786Z,12.23
2023-08-29T01:11:02.950Z,9.82
2023-08-29T01:13:39.987Z,10.90
2023-08-29T01:16:11.044Z,10.18
2023-08-29T01:18:40.080Z,16.30
2023-08-29T01:21:19.984Z,13.73
2023-08-29T01:23:55.805Z,13.20
2023-08-29T01:26:25.577Z,14.95
2023-08-29T01:28:53.385Z,15.88
2023-08-29T01:31:22.284Z,14.17
2023-08-29T01:33:49.932Z,15.88
2023-08-29T01:36:17.395Z,16.45
2023-08-29T01:38:44.880Z,14.90
2023-08-29T01:41:12.367Z,14.30
2023-08-29T01:43:41.220Z,14.07
2023-08-29T01:46:08.725Z,13.75
2023-08-29T01:48:36.879Z,14.70
2023-08-29T01:51:04.407Z,16.95
2023-08-29T01:53:31.947Z,13.65
2023-08-29T01:56:01.373Z,12.73
2023-08-29T01:58:29.718Z,11.93
2023-08-29T02:01:09.866Z,14.30
2023-08-29T02:03:46.603Z,14.27
2023-08-29T02:06:14.792Z,16.15
2023-08-29T02:08:43.494Z,15.13
2023-08-29T02:11:10.989Z,17.08
2023-08-29T02:13:38.487Z,16.02
2023-08-29T02:16:07.362Z,13.55
2023-08-29T02:18:34.921Z,17.55
2023-08-29T02:21:02.458Z,20.37
2023-08-29T02:23:29.968Z,19.05
2023-08-29T02:26:04.873Z,17.30
2023-08-29T02:28:35.189Z,15.40
2023-08-29T02:31:07.598Z,14.88
2023-08-29T02:33:38.247Z,16.23
2023-08-29T02:36:06.555Z,10.93
2023-08-29T02:38:34.396Z,7.22
2023-08-29T02:41:02.080Z,9.32
2023-08-29T02:43:29.891Z,9.63
2023-08-29T02:45:57.429Z,6.97
2023-08-29T02:48:26.354Z,11.40
2023-08-29T02:50:53.856Z,13.68
2023-08-29T02:53:22.986Z,9.75
2023-08-29T02:55:52.032Z,8.38
2023-08-29T02:58:19.807Z,10.00
2023-08-29T03:00:48.465Z,10.63
2023-08-29T03:03:16.138Z,10.40
2023-08-29T03:05:54.632Z,10.73
2023-08-29T03:08:22.153Z,11.60
2023-08-29T03:10:49.814Z,12.17
2023-08-29T03:13:18.897Z,11.57
2023-08-29T03:15:46.468Z,12.20
2023-08-29T03:18:14.030Z,18.17
2023-08-29T03:20:41.885Z,15.43
2023-08-29T03:23:10.725Z,19.83
2023-08-29T03:25:38.472Z,22.98
2023-08-29T03:28:07.263Z,21.08
2023-08-29T03:30:35.116Z,21.60
2023-08-29T03:33:03.071Z,24.80
2023-08-29T03:35:30.974Z,24.73
2023-08-29T03:37:58.826Z,24.70
2023-08-29T03:40:27.693Z,23.50
2023-08-29T03:42:55.187Z,25.08
2023-08-29T03:45:22.947Z,22.30
2023-08-29T03:47:50.488Z,21.13
2023-08-29T03:50:21.547Z,13.63
2023-08-29T03:52:49.979Z,13.35
2023-08-29T03:55:17.616Z,12.93
2023-08-29T03:57:46.428Z,12.80
2023-08-29T04:00:15.766Z,13.83
2023-08-29T04:02:43.438Z,16.83
2023-08-29T04:05:16.701Z,15.43
2023-08-29T04:07:45.457Z,19.73
2023-08-29T04:10:14.575Z,15.88
2023-08-29T04:12:42.233Z,15.73
2023-08-29T04:15:13.551Z,15.57
2023-08-29T04:17:41.168Z,15.32
2023-08-29T04:20:10.666Z,15.70
2023-08-29T04:22:39.283Z,15.77
2023-08-29T04:25:07.888Z,14.47
2023-08-29T04:27:36.389Z,14.25
2023-08-29T04:30:04.977Z,14.80
2023-08-29T04:32:35.384Z,16.65
2023-08-29T04:35:03.845Z,13.45
2023-08-29T04:37:31.334Z,15.47
2023-08-29T04:39:58.846Z,15.13
2023-08-29T04:42:26.381Z,17.30
2023-08-29T04:44:54.766Z,14.90
2023-08-29T04:47:22.338Z,16.38
2023-08-29T04:49:51.188Z,16.90
2023-08-29T04:52:18.737Z,19.85
2023-08-29T04:54:46.267Z,22.73
2023-08-29T04:57:14.214Z,24.15
2023-08-29T04:59:41.735Z,31.00
2023-08-29T05:02:09.726Z,26.17
2023-08-29T05:04:37.686Z,27.25
2023-08-29T05:07:06.662Z,28.45
2023-08-29T05:09:34.160Z,27.70
2023-08-29T05:12:01.690Z,31.05
2023-08-29T05:14:29.195Z,29.50
2023-08-29T05:16:57.596Z,31.17
2023-08-29T05:19:25.115Z,29.05
2023-08-29T05:21:52.676Z,25.50
2023-08-29T05:24:21.539Z,17.55
2023-08-29T05:26:49.693Z,12.87
2023-08-29T05:29:17.207Z,9.90
2023-08-29T05:31:44.764Z,8.82
2023-08-29T05:34:12.330Z,8.93
2023-08-29T05:36:39.800Z,12.27
2023-08-29T05:39:07.432Z,12.03
2023-08-29T05:41:36.338Z,16.65
2023-08-29T05:44:04.167Z,13.15
2023-08-29T05:46:32.212Z,16.92
2023-08-29T05:49:00.676Z,19.30
2023-08-29T05:51:28.275Z,19.93
2023-08-29T05:53:55.940Z,15.52
2023-08-29T05:56:23.462Z,15.18
2023-08-29T05:58:52.310Z,15.52
2023-08-29T06:01:19.894Z,15.90
2023-08-29T06:03:48.621Z,15.97
2023-08-29T06:06:16.694Z,17.00
2023-08-29T06:08:45.598Z,18.63
2023-08-29T06:11:13.245Z,16.52
2023-08-29T06:13:40.740Z,18.70
2023-08-29T06:16:09.775Z,17.20
2023-08-29T06:18:37.286Z,15.20
2023-08-29T06:21:06.038Z,19.23
2023-08-29T06:23:33.575Z,18.48
2023-08-29T06:26:01.145Z,17.55
2023-08-29T06:28:29.524Z,19.87
2023-08-29T06:30:57.073Z,19.83
2023-08-29T06:33:26.017Z,19.30
2023-08-29T06:35:53.498Z,23.02
2023-08-29T06:38:20.961Z,33.65
2023-08-29T06:40:55.350Z,32.73
2023-08-29T06:43:22.971Z,33.88
2023-08-29T06:45:50.591Z,31.05
2023-08-29T06:48:18.113Z,31.77
2023-08-29T06:50:48.552Z,32.90
2023-08-29T06:53:16.056Z,32.57
2023-08-29T06:55:43.529Z,29.60
2023-08-29T06:58:11.010Z,33.25
2023-08-29T07:00:38.553Z,28.50
2023-08-29T07:03:06.662Z,29.55
2023-08-29T07:05:34.925Z,31.53
2023-08-29T07:08:05.056Z,31.75
2023-08-29T07:10:32.927Z,31.88
2023-08-29T07:13:00.408Z,29.33
2023-08-29T07:15:27.919Z,31.42
2023-08-29T07:17:55.459Z,27.90
2023-08-29T07:20:23.191Z,29.80
2023-08-29T07:22:50.694Z,29.23
2023-08-29T07:25:20.858Z,31.13
2023-08-29T07:27:48.331Z,28.20
2023-08-29T07:30:16.828Z,29.13
2023-08-29T07:32:45.463Z,31.58
2023-08-29T07:35:14.886Z,31.63
2023-08-29T07:37:42.432Z,28.98
2023-08-29T07:40:11.063Z,28.73
2023-08-29T07:42:39.979Z,28.30
2023-08-29T07:45:08.534Z,28.90
2023-08-29T07:47:36.201Z,27.58
2023-08-29T07:50:04.256Z,25.77
2023-08-29T07:52:31.756Z,24.85
2023-08-29T07:54:59.795Z,24.97
2023-08-29T07:57:27.343Z,29.02
2023-08-29T07:59:56.150Z,25.30
2023-08-29T08:02:23.719Z,19.83
2023-08-29T08:04:51.201Z,24.30
2023-08-29T08:07:18.790Z,21.77
2023-08-29T08:09:46.505Z,27.98
2023-08-29T08:12:14.050Z,22.30
2023-08-29T08:14:41.567Z,25.92
2023-08-29T08:17:10.935Z,23.17
2023-08-29T08:19:38.425Z,25.17
2023-08-29T08:22:06.210Z,20.48
2023-08-29T08:24:33.707Z,23.65
2023-08-29T08:27:01.270Z,19.98
2023-08-29T08:29:28.790Z,17.67
2023-08-29T08:31:56.273Z,18.10
2023-08-29T08:34:25.191Z,11.52
2023-08-29T08:36:52.728Z,13.15
2023-08-29T08:39:20.235Z,10.95
2023-08-29T08:41:47.763Z,14.23
2023-08-29T08:44:17.002Z,11.83
2023-08-29T08:46:46.032Z,11.52
2023-08-29T08:49:14.664Z,10.95
2023-08-29T08:51:43.847Z,11.48
2023-08-29T08:54:12.603Z,10.90
2023-08-29T08:56:40.810Z,10.43
2023-08-29T08:59:08.519Z,12.65
2023-08-29T09:01:36.061Z,9.77
2023-08-29T09:04:04.243Z,10.32
2023-08-29T09:06:32.254Z,11.38
2023-08-29T09:09:16.830Z,10.47
2023-08-29T09:11:44.549Z,8.35
2023-08-29T09:14:13.975Z,6.88
2023-08-29T09:16:41.820Z,8.48
2023-08-29T09:19:09.407Z,10.10
2023-08-29T09:21:37.569Z,8.43
2023-08-29T09:24:05.771Z,6.75
2023-08-29T09:26:36.064Z,8.10
2023-08-29T09:29:18.952Z,8.23
2023-08-29T09:31:48.027Z,7.70
2023-08-29T09:34:30.092Z,8.47
2023-08-29T09:36:58.692Z,8.60
2023-08-29T09:39:26.569Z,7.20
2023-08-29T09:42:02.934Z,9.85
2023-08-29T09:44:31.110Z,7.03
2023-08-29T09:46:58.665Z,6.30
2023-08-29T09:49:32.551Z,4.93
2023-08-29T09:52:03.567Z,7.22
2023-08-29T09:54:34.631Z,5.10
2023-08-29T09:57:06.719Z,4.03
2023-08-29T09:59:38.226Z,7.27
2023-08-29T10:02:06.495Z,6.38
2023-08-29T10:04:36.365Z,6.00
2023-08-29T10:07:06.839Z,7.15
2023-08-29T10:09:35.696Z,6.47
2023-08-29T10:12:06.315Z,7.10
2023-08-29T10:14:35.591Z,5.65
2023-08-29T10:17:08.410Z,6.43
2023-08-29T10:19:39.217Z,5.20
2023-08-29T10:22:08.481Z,4.47
2023-08-29T10:24:37.325Z,3.27
2023-08-29T10:27:06.736Z,3.20
2023-08-29T10:29:34.581Z,3.88
2023-08-29T10:32:03.833Z,4.50
2023-08-29T10:34:31.884Z,4.38
2023-08-29T10:37:01.076Z,4.53
2023-08-29T10:39:28.968Z,5.30
2023-08-29T10:41:57.807Z,7.18
2023-08-29T10:44:37.673Z,5.97
2023-08-29T10:47:27.717Z,3.10
2023-08-29T10:50:00.004Z,2.50
2023-08-29T10:52:38.328Z,2.95
2023-08-29T10:55:09.921Z,6.20
2023-08-29T10:57:37.564Z,4.03
2023-08-29T11:00:18.362Z,3.65
2023-08-29T11:02:46.677Z,4.23
2023-08-29T11:05:16.820Z,3.40
2023-08-29T11:07:47.998Z,3.72
2023-08-29T11:10:21.211Z,2.90
2023-08-29T11:13:07.421Z,3.47
2023-08-29T11:16:07.784Z,4.53
2023-08-29T11:18:36.072Z,5.75
2023-08-29T11:21:08.374Z,5.05
2023-08-29T11:23:39.650Z,7.47
2023-08-29T11:26:07.770Z,6.30
2023-08-29T11:28:36.180Z,5.87
2023-08-29T11:31:06.009Z,7.00
2023-08-29T11:33:36.437Z,5.43
2023-08-29T11:36:07.107Z,5.13
2023-08-29T11:38:38.656Z,6.75
2023-08-29T11:41:19.495Z,4.77
2023-08-29T11:44:25.166Z,7.18
2023-08-29T11:46:45.433Z,9.65
2023-08-29T11:49:15.632Z,8.88
2023-08-29T11:51:43.400Z,7.20
2023-08-29T11:54:42.274Z,6.83
2023-08-29T11:57:13.299Z,6.38
2023-08-29T11:59:42.687Z,6.30
2023-08-29T12:02:16.959Z,6.60
2023-08-29T12:04:48.871Z,9.65
2023-08-29T12:07:17.877Z,7.80
2023-08-29T12:09:47.340Z,10.10
2023-08-29T12:12:32.609Z,8.95
2023-08-29T12:15:01.012Z,10.50
2023-08-29T12:17:39.291Z,13.02
2023-08-29T12:20:31.097Z,9.27
2023-08-29T12:22:59.161Z,9.90
2023-08-29T12:25:28.037Z,10.27
2023-08-29T12:27:55.797Z,8.80
2023-08-29T12:30:23.675Z,8.43
2023-08-29T12:32:51.422Z,9.80
2023-08-29T12:35:19.941Z,9.70
2023-08-29T12:37:49.704Z,10.88
2023-08-29T12:40:18.684Z,11.98
2023-08-29T12:42:48.493Z,11.38
2023-08-29T12:45:16.232Z,10.70
2023-08-29T12:47:43.971Z,10.40
2023-08-29T12:50:15.953Z,8.93
2023-08-29T12:52:43.815Z,11.23
2023-08-29T12:55:13.496Z,10.82
2023-08-29T12:57:41.340Z,6.93
2023-08-29T13:00:10.757Z,6.00
2023-08-29T13:02:38.569Z,7.45
2023-08-29T13:05:07.736Z,6.70
2023-08-29T13:07:35.398Z,8.30
2023-08-29T13:10:06.304Z,7.20
2023-08-29T13:12:37.334Z,8.00
2023-08-29T13:15:06.763Z,7.38
2023-08-29T13:17:34.985Z,9.30
2023-08-29T13:20:02.759Z,9.20
2023-08-29T13:22:30.565Z,10.87
2023-08-29T13:24:59.361Z,9.98
2023-08-29T13:27:26.920Z,8.48
2023-08-29T13:29:55.827Z,10.77
2023-08-29T13:32:23.355Z,9.75
2023-08-29T13:34:50.867Z,6.90
2023-08-29T13:37:18.420Z,8.32
2023-08-29T13:39:45.984Z,4.82
2023-08-29T13:42:13.543Z,5.38
2023-08-29T13:44:41.053Z,7.03
2023-08-29T13:47:10.363Z,6.30
2023-08-29T13:49:37.914Z,6.22
2023-08-29T13:52:08.397Z,4.85
2023-08-29T13:54:37.064Z,4.95
2023-08-29T13:57:05.257Z,5.13
2023-08-29T13:59:33.118Z,6.27
2023-08-29T14:02:00.822Z,4.82
2023-08-29T14:04:29.772Z,5.80
2023-08-29T14:06:57.731Z,5.03
2023-08-29T14:09:25.276Z,5.25
2023-08-29T14:11:52.746Z,4.80
2023-08-29T14:14:20.274Z,4.90
2023-08-29T14:16:47.776Z,4.25
2023-08-29T14:19:15.307Z,4.50
2023-08-29T14:21:44.165Z,4.28
2023-08-29T14:24:11.777Z,2.97
2023-08-29T14:26:40.607Z,4.53
2023-08-29T14:29:08.528Z,6.00
2023-08-29T14:31:36.113Z,4.03
2023-08-29T14:34:03.758Z,3.60
2023-08-29T14:36:32.213Z,3.40
2023-08-29T14:39:01.839Z,4.72
2023-08-29T14:41:29.511Z,3.00
2023-08-29T14:43:57.173Z,5.93
2023-08-29T14:46:24.813Z,6.18
2023-08-29T14:48:52.461Z,5.97
2023-08-29T14:51:19.963Z,4.95
2023-08-29T14:53:47.501Z,5.65
2023-08-29T14:56:16.437Z,4.78
2023-08-29T14:58:45.270Z,3.92
2023-08-29T15:01:12.805Z,4.73
2023-08-29T15:03:40.707Z,3.58
2023-08-29T15:06:09.252Z,2.55
2023-08-29T15:08:36.740Z,10.52
2023-08-29T15:11:04.218Z,3.75
2023-08-29T15:13:33.033Z,2.57
2023-08-29T15:16:01.375Z,2.55
2023-08-29T15:18:28.997Z,2.42
2023-08-29T15:20:56.520Z,4.80
2023-08-29T15:23:25.384Z,1.98
2023-08-29T15:25:53.385Z,3.73
2023-08-29T15:28:21.139Z,2.80
2023-08-29T15:30:53.460Z,2.65
2023-08-29T15:33:22.064Z,3.95
2023-08-29T15:35:49.544Z,4.10
2023-08-29T15:38:17.067Z,5.20
2023-08-29T15:40:46.034Z,6.05
2023-08-29T15:43:15.425Z,4.25
2023-08-29T15:45:46.360Z,4.75
2023-08-29T15:48:15.654Z,5.53
2023-08-29T15:50:44.545Z,7.50
2023-08-29T15:53:12.383Z,6.57
2023-08-29T15:55:40.521Z,7.72
2023-08-29T15:58:09.657Z,7.78
2023-08-29T16:00:38.066Z,9.48
2023-08-29T16:03:07.627Z,8.43
2023-08-29T16:05:37.212Z,6.15
2023-08-29T16:08:05.887Z,7.55
2023-08-29T16:10:33.697Z,7.85
2023-08-29T16:13:01.663Z,7.15
2023-08-29T16:15:29.173Z,6.57
2023-08-29T16:17:56.794Z,6.50
2023-08-29T16:20:25.809Z,7.10
2023-08-29T16:22:56.339Z,6.15
2023-08-29T16:25:23.830Z,6.57
2023-08-29T16:27:51.308Z,7.47
2023-08-29T16:30:18.848Z,7.65
2023-08-29T16:32:46.559Z,7.25
2023-08-29T16:35:14.251Z,6.80
2023-08-29T16:37:41.728Z,7.45
2023-08-29T16:40:11.883Z,9.53
2023-08-29T16:42:39.398Z,7.28
2023-08-29T16:45:10.212Z,6.00
2023-08-29T16:47:37.947Z,8.40
2023-08-29T16:50:06.501Z,9.48
2023-08-29T16:52:33.993Z,9.43
2023-08-29T16:55:02.607Z,7.40
2023-08-29T16:57:31.409Z,7.32
2023-08-29T17:00:00.001Z,8.25
2023-08-29T17:02:28.629Z,8.32
2023-08-29T17:04:57.654Z,8.97
2023-08-29T17:07:26.414Z,9.02
2023-08-29T17:09:54.233Z,8.48
2023-08-29T17:12:23.232Z,7.13
2023-08-29T17:14:52.621Z,7.63
2023-08-29T17:17:20.478Z,8.17
2023-08-29T17:19:48.050Z,8.27
2023-08-29T17:22:15.610Z,7.93
2023-08-29T17:24:43.317Z,8.20
2023-08-29T17:27:10.803Z,9.15
2023-08-29T17:29:38.367Z,9.83
2023-08-29T17:32:08.420Z,6.80
2023-08-29T17:34:35.916Z,7.78
2023-08-29T17:37:03.525Z,6.70
2023-08-29T17:39:31.024Z,7.38
2023-08-29T17:41:58.658Z,7.13
2023-08-29T17:44:26.144Z,10.48
2023-08-29T17:46:53.643Z,9.23
2023-08-29T17:49:22.523Z,6.15
2023-08-29T17:51:50.064Z,6.13
2023-08-29T17:54:18.708Z,6.73
2023-08-29T17:56:46.388Z,6.72
2023-08-29T17:59:13.935Z,6.40
2023-08-29T18:01:41.599Z,5.43
2023-08-29T18:04:09.949Z,7.57
2023-08-29T18:06:38.835Z,7.13
2023-08-29T18:09:06.670Z,9.90
2023-08-29T18:11:34.291Z,7.75
2023-08-29T18:14:01.833Z,6.97
2023-08-29T18:16:29.572Z,6.70
2023-08-29T18:19:00.558Z,8.07
2023-08-29T18:21:28.521Z,9.00
2023-08-29T18:23:58.448Z,9.15
2023-08-29T18:26:26.185Z,7.20
2023-08-29T18:28:53.823Z,8.13
2023-08-29T18:31:21.431Z,6.67
2023-08-29T18:33:49.039Z,8.95
2023-08-29T18:36:16.554Z,10.52
2023-08-29T18:38:44.068Z,6.78
2023-08-29T18:41:12.891Z,6.65
2023-08-29T18:43:40.847Z,6.77
2023-08-29T18:46:08.970Z,5.80
2023-08-29T18:48:36.580Z,7.03
2023-08-29T18:51:04.121Z,5.80
2023-08-29T18:53:31.673Z,5.28
2023-08-29T18:55:59.475Z,5.93
2023-08-29T18:58:28.299Z,5.60
2023-08-29T19:00:55.814Z,5.68
2023-08-29T19:03:23.476Z,7.13
2023-08-29T19:05:51.014Z,7.90
2023-08-29T19:08:18.500Z,6.00
2023-08-29T19:10:47.523Z,8.10
2023-08-29T19:13:15.080Z,7.13
2023-08-29T19:15:43.936Z,6.95
2023-08-29T19:18:14.523Z,9.50
2023-08-29T19:20:42.301Z,5.63
2023-08-29T19:23:09.910Z,6.05
2023-08-29T19:25:37.411Z,5.50
2023-08-29T19:28:05.867Z,5.20
2023-08-29T19:30:35.186Z,7.05
2023-08-29T19:33:05.410Z,5.67
2023-08-29T19:35:36.198Z,5.65
2023-08-29T19:38:04.121Z,7.97
2023-08-29T19:40:31.830Z,10.52
2023-08-29T19:43:01.366Z,6.63
2023-08-29T19:45:29.623Z,6.40
2023-08-29T19:47:57.410Z,4.72
2023-08-29T19:50:26.425Z,4.80
2023-08-29T19:52:54.093Z,5.60
2023-08-29T19:55:22.773Z,5.15
2023-08-29T19:57:50.578Z,5.10
2023-08-29T20:00:18.981Z,5.38
2023-08-29T20:02:55.558Z,4.47
2023-08-29T20:05:24.428Z,5.60
2023-08-29T20:07:53.894Z,6.55
2023-08-29T20:10:22.742Z,5.03
2023-08-29T20:12:50.471Z,5.28
2023-08-29T20:15:19.166Z,5.03
2023-08-29T20:17:47.322Z,7.78
2023-08-29T20:20:15.282Z,4.68
2023-08-29T20:22:44.369Z,5.10
2023-08-29T20:25:13.324Z,6.35
2023-08-29T20:27:40.999Z,4.57
2023-08-29T20:30:10.407Z,5.40
2023-08-29T20:32:38.875Z,5.95
2023-08-29T20:35:07.976Z,4.27
2023-08-29T20:37:35.627Z,6.00
2023-08-29T20:40:04.960Z,5.80
2023-08-29T20:42:34.718Z,4.15
2023-08-29T20:45:02.479Z,4.82
2023-08-29T20:47:30.199Z,4.37
2023-08-29T20:49:57.915Z,4.10
2023-08-29T20:52:26.669Z,4.75
2023-08-29T20:54:54.400Z,3.85
2023-08-29T20:57:22.068Z,4.05
2023-08-29T20:59:51.151Z,4.83
2023-08-29T21:02:18.821Z,6.28
2023-08-29T21:04:46.691Z,4.88
2023-08-29T21:07:14.445Z,5.28
2023-08-29T21:09:42.604Z,5.10
2023-08-29T21:12:10.468Z,6.53
2023-08-29T21:14:38.205Z,5.75
2023-08-29T21:17:07.222Z,10.40
2023-08-29T21:19:35.376Z,4.70
2023-08-29T21:22:02.884Z,6.05
2023-08-29T21:24:30.490Z,4.40
2023-08-29T21:26:57.989Z,6.70
2023-08-29T21:29:25.534Z,3.85
2023-08-29T21:31:53.060Z,4.57
2023-08-29T21:34:23.277Z,5.18
2023-08-29T21:36:51.659Z,5.03
2023-08-29T21:39:19.195Z,4.97
2023-08-29T21:41:46.891Z,4.47
2023-08-29T21:44:14.460Z,4.65
2023-08-29T21:46:41.973Z,4.70
2023-08-29T21:49:09.471Z,4.67
2023-08-29T21:51:38.336Z,8.15
2023-08-29T21:54:06.158Z,4.85
2023-08-29T21:56:33.649Z,6.10
2023-08-29T21:59:01.144Z,4.55
2023-08-29T22:01:28.654Z,5.30
2023-08-29T22:03:56.705Z,5.60
2023-08-29T22:06:24.238Z,4.93
2023-08-29T22:08:53.065Z,4.95
2023-08-29T22:11:22.398Z,5.57
2023-08-29T22:13:49.924Z,6.33
2023-08-29T22:16:17.523Z,6.40
2023-08-29T22:18:45.093Z,7.30
2023-08-29T22:21:12.632Z,8.27
2023-08-29T22:23:40.140Z,4.40
2023-08-29T22:26:09.005Z,5.17
2023-08-29T22:28:36.559Z,5.47
2023-08-29T22:31:04.102Z,6.82
2023-08-29T22:33:32.781Z,6.50
2023-08-29T22:36:00.491Z,7.03
2023-08-29T22:38:28.092Z,5.60
2023-08-29T22:40:55.959Z,6.38
2023-08-29T22:43:24.790Z,5.93
2023-08-29T22:45:55.919Z,7.43
2023-08-29T22:48:23.537Z,5.43
2023-08-29T22:50:51.243Z,5.63
2023-08-29T22:53:18.940Z,7.15
2023-08-29T22:55:46.444Z,4.90
2023-08-29T22:58:13.956Z,6.25
2023-08-29T23:00:43.188Z,7.50
2023-08-29T23:03:11.004Z,8.93
2023-08-29T23:05:43.956Z,6.97
2023-08-29T23:08:12.390Z,7.15
2023-08-29T23:10:40.289Z,6.78
2023-08-29T23:13:07.780Z,6.20
2023-08-29T23:15:35.992Z,4.77
2023-08-29T23:18:05.489Z,9.10
2023-08-29T23:20:33.750Z,5.97
2023-08-29T23:23:01.273Z,6.30
2023-08-29T23:25:28.760Z,6.50
2023-08-29T23:27:56.298Z,6.43
2023-08-29T23:30:23.857Z,7.07
2023-08-29T23:32:51.397Z,6.75
2023-08-29T23:35:21.453Z,8.48
2023-08-29T23:37:48.957Z,6.68
2023-08-29T23:40:16.558Z,7.23
2023-08-29T23:42:44.073Z,8.30
2023-08-29T23:45:11.823Z,7.95
2023-08-29T23:47:39.334Z,8.15
2023-08-29T23:50:07.816Z,8.38
2023-08-29T23:52:36.700Z,7.30
2023-08-29T23:55:05.136Z,7.85
2023-08-29T23:57:32.630Z,10.00
